Time;durP1;ratioP1;P1;durP2;ratioP2;P2;SDS_P1;SDS_P2;PMS_P1;PMS_P2;Temp;Humidity;BMP_temperature;BMP_pressure;BME280_temperature;BME280_humidity;BME280_pressure;Samples;Min_cycle;Max_cycle;Signal;HPM_P1;HPM_P2
2023/05/14 00:00:15;;;;;;;51.92;30.20;;;10.70;99.90;;;;;;6329046;22;20011;-95
2023/05/14 00:02:51;;;;;;;44.47;27.55;;;10.70;99.90;;;;;;6326411;22;20003;-96
2023/05/14 00:05:17;;;;;;;46.75;27.63;;;10.70;99.90;;;;;;6328087;22;20003;-95
2023/05/14 00:07:46;;;;;;;47.75;29.10;;;10.70;99.90;;;;;;6326421;22;19999;-96
2023/05/14 00:10:20;;;;;;;55.85;30.20;;;10.70;99.90;;;;;;6272624;22;20015;-96
2023/05/14 00:12:48;;;;;;;61.38;33.67;;;10.60;99.90;;;;;;6271354;22;20026;-96
2023/05/14 00:15:16;;;;;;;61.50;34.53;;;10.60;99.90;;;;;;6271888;22;20045;-96
2023/05/14 00:17:43;;;;;;;67.72;34.72;;;10.60;99.90;;;;;;6245199;22;20008;-95
2023/05/14 00:20:11;;;;;;;56.97;33.22;;;10.60;99.90;;;;;;6297322;22;20060;-95
2023/05/14 00:22:40;;;;;;;58.28;33.15;;;10.50;99.90;;;;;;6298156;22;20091;-95
2023/05/14 00:25:08;;;;;;;63.72;35.20;;;10.50;99.90;;;;;;6268969;22;20066;-95
2023/05/14 00:27:37;;;;;;;63.78;35.67;;;10.50;99.90;;;;;;6271311;22;19999;-96
2023/05/14 00:30:05;;;;;;;56.00;32.65;;;10.50;99.90;;;;;;6271209;22;20000;-96
2023/05/14 00:32:33;;;;;;;57.45;31.08;;;10.40;99.90;;;;;;6245881;22;20434;-96
2023/05/14 00:34:59;;;;;;;61.20;34.28;;;10.40;99.90;;;;;;6274275;22;20023;-95
2023/05/14 00:37:26;;;;;;;60.22;33.55;;;10.30;99.90;;;;;;6297475;22;20018;-96
2023/05/14 00:39:59;;;;;;;59.00;33.67;;;10.30;99.90;;;;;;6292756;22;20035;-96
2023/05/14 00:42:26;;;;;;;66.43;35.40;;;10.30;99.90;;;;;;6268989;22;20008;-96
2023/05/14 00:44:55;;;;;;;60.92;34.40;;;10.30;99.90;;;;;;6270907;22;20222;-94
2023/05/14 00:47:22;;;;;;;63.95;35.25;;;10.30;99.90;;;;;;6270636;22;20022;-96
2023/05/14 00:49:47;;;;;;;54.72;31.52;;;10.30;99.90;;;;;;6265858;22;20004;-96
2023/05/14 00:52:16;;;;;;;59.95;33.28;;;10.30;99.90;;;;;;6266365;22;20138;-96
2023/05/14 00:54:45;;;;;;;61.63;32.38;;;10.30;99.90;;;;;;6264157;22;20042;-96
2023/05/14 00:57:11;;;;;;;55.30;31.13;;;10.30;99.90;;;;;;6261494;22;20004;-95
2023/05/14 00:59:41;;;;;;;53.22;29.95;;;10.30;99.90;;;;;;6293771;22;20003;-96
2023/05/14 01:02:08;;;;;;;83.35;39.38;;;10.30;99.90;;;;;;6267863;22;20007;-96
2023/05/14 01:04:34;;;;;;;99.00;42.72;;;10.30;99.90;;;;;;6266618;22;20057;-96
2023/05/14 01:07:25;;;;;;;130.70;47.88;;;10.30;99.90;;;;;;6267057;22;20019;-96
2023/05/14 01:09:54;;;;;;;100.75;42.05;;;10.30;99.90;;;;;;6324129;22;20014;-96
2023/05/14 01:12:40;;;;;;;90.00;38.13;;;10.30;99.90;;;;;;6334515;22;19991;-96
2023/05/14 01:15:21;;;;;;;100.35;40.60;;;10.30;99.90;;;;;;6326732;22;19999;-96
2023/05/14 01:18:01;;;;;;;89.32;37.15;;;10.30;99.90;;;;;;6301682;22;20027;-96
2023/05/14 01:20:27;;;;;;;78.30;37.20;;;10.30;99.90;;;;;;6322667;22;20022;-96
2023/05/14 01:22:55;;;;;;;83.43;37.10;;;10.30;99.90;;;;;;6326563;22;20003;-96
2023/05/14 01:25:26;;;;;;;77.63;35.85;;;10.30;99.90;;;;;;6325778;22;20000;-95
2023/05/14 01:28:05;;;;;;;97.22;40.88;;;10.30;99.90;;;;;;6324435;22;20013;-96
2023/05/14 01:30:35;;;;;;;90.50;39.45;;;10.30;99.90;;;;;;6322267;22;20008;-96
2023/05/14 01:33:05;;;;;;;72.15;34.45;;;10.40;99.90;;;;;;6321538;22;19999;-96
2023/05/14 01:35:34;;;;;;;74.07;35.42;;;10.40;99.90;;;;;;6323516;22;20011;-95
2023/05/14 01:38:03;;;;;;;79.03;34.55;;;10.40;99.90;;;;;;6321056;22;20003;-96
2023/05/14 01:40:36;;;;;;;75.75;35.95;;;10.30;99.90;;;;;;6321789;22;20075;-96
2023/05/14 01:43:04;;;;;;;77.00;35.17;;;10.30;99.90;;;;;;6319980;22;20003;-96
2023/05/14 01:45:36;;;;;;;78.30;34.90;;;10.20;99.90;;;;;;6322864;22;20521;-96
2023/05/14 01:48:04;;;;;;;75.07;33.40;;;10.20;99.90;;;;;;6324103;22;20022;-96
2023/05/14 01:50:30;;;;;;;81.10;35.42;;;10.20;99.90;;;;;;6322797;22;20000;-96
2023/05/14 01:52:57;;;;;;;76.55;34.75;;;10.20;99.90;;;;;;6327343;22;19999;-96
2023/05/14 01:55:30;;;;;;;71.75;32.33;;;10.20;99.90;;;;;;6328193;22;19999;-95
2023/05/14 01:57:56;;;;;;;68.68;31.90;;;10.20;99.90;;;;;;6318488;22;20034;-96
2023/05/14 02:00:24;;;;;;;71.22;31.08;;;10.10;99.90;;;;;;6326120;22;20011;-96
2023/05/14 02:02:56;;;;;;;71.05;32.22;;;10.10;99.90;;;;;;6324964;22;20081;-96
2023/05/14 02:05:22;;;;;;;55.28;28.33;;;10.00;99.90;;;;;;6331011;22;20003;-96
2023/05/14 02:07:50;;;;;;;58.42;26.40;;;9.90;99.90;;;;;;6330125;22;19997;-96
2023/05/14 02:10:22;;;;;;;50.95;26.88;;;9.90;99.90;;;;;;6221072;22;20029;-96
2023/05/14 02:12:49;;;;;;;60.15;30.50;;;9.80;99.90;;;;;;6268613;22;20004;-96
2023/05/14 02:15:15;;;;;;;55.95;28.00;;;9.80;99.90;;;;;;6268243;22;20503;-96
2023/05/14 02:17:43;;;;;;;54.55;27.13;;;9.70;99.90;;;;;;6241146;22;20016;-96
2023/05/14 02:20:10;;;;;;;60.20;29.00;;;9.70;99.90;;;;;;6265843;22;20004;-96
2023/05/14 02:22:37;;;;;;;60.47;30.23;;;9.70;99.90;;;;;;6264894;22;20020;-96
2023/05/14 02:25:05;;;;;;;61.03;29.73;;;9.80;99.90;;;;;;6293556;22;20000;-96
2023/05/14 02:27:31;;;;;;;58.55;28.80;;;9.80;99.90;;;;;;6265248;22;20505;-95
2023/05/14 02:29:59;;;;;;;61.15;30.40;;;9.80;99.90;;;;;;6264455;22;20004;-96
2023/05/14 02:32:27;;;;;;;63.65;29.73;;;9.80;99.90;;;;;;6241874;22;20027;-96
2023/05/14 02:34:53;;;;;;;64.53;28.90;;;9.80;99.90;;;;;;6264228;22;20006;-95
2023/05/14 02:37:18;;;;;;;70.15;30.00;;;9.70;99.90;;;;;;6256248;22;20012;-96
2023/05/14 02:39:44;;;;;;;66.25;30.73;;;9.80;99.90;;;;;;6262011;22;20000;-95
2023/05/14 02:42:10;;;;;;;60.88;30.15;;;9.80;99.90;;;;;;6262404;22;20007;-96
2023/05/14 02:44:38;;;;;;;66.20;31.30;;;9.80;99.90;;;;;;6263250;22;20008;-95
2023/05/14 02:47:04;;;;;;;63.72;30.20;;;9.80;99.90;;;;;;6262524;22;20008;-95
2023/05/14 02:49:29;;;;;;;69.30;31.20;;;9.90;99.90;;;;;;6255677;22;20145;-96
2023/05/14 02:51:55;;;;;;;60.95;29.33;;;9.90;99.90;;;;;;6283004;22;20019;-95
2023/05/14 02:54:21;;;;;;;63.55;30.17;;;9.90;99.90;;;;;;6286241;22;20003;-96
2023/05/14 02:56:47;;;;;;;72.15;33.70;;;9.80;99.90;;;;;;6261951;22;20331;-96
2023/05/14 02:59:15;;;;;;;88.63;35.97;;;9.80;99.90;;;;;;6263921;22;20019;-96
2023/05/14 03:01:41;;;;;;;103.38;39.22;;;9.80;99.90;;;;;;6273103;22;20047;-96
2023/05/14 03:04:09;;;;;;;107.57;37.88;;;9.80;99.90;;;;;;6277181;22;20038;-96
2023/05/14 03:06:37;;;;;;;116.60;39.75;;;9.80;99.90;;;;;;6251794;22;20034;-96
2023/05/14 03:09:04;;;;;;;112.68;39.72;;;9.80;99.90;;;;;;6300630;22;20383;-96
2023/05/14 03:11:30;;;;;;;116.03;42.30;;;9.80;99.90;;;;;;6319509;22;20034;-95
2023/05/14 03:13:57;;;;;;;116.45;42.17;;;9.80;99.90;;;;;;6317445;22;20045;-96
2023/05/14 03:16:23;;;;;;;131.80;44.58;;;9.80;99.90;;;;;;6321023;22;19999;-96
2023/05/14 03:18:49;;;;;;;133.02;43.25;;;9.80;99.90;;;;;;6325151;22;20045;-96
2023/05/14 03:21:18;;;;;;;128.52;42.95;;;9.90;99.90;;;;;;6320215;22;20019;-96
2023/05/14 03:23:44;;;;;;;125.88;42.45;;;9.90;99.90;;;;;;6318273;22;20015;-95
2023/05/14 03:26:11;;;;;;;123.00;43.10;;;9.90;99.90;;;;;;6319019;22;20015;-96
2023/05/14 03:28:37;;;;;;;113.53;39.72;;;9.80;99.90;;;;;;6325902;22;19998;-96
2023/05/14 03:31:04;;;;;;;115.97;43.03;;;9.80;99.90;;;;;;6327585;22;20011;-96
2023/05/14 03:33:30;;;;;;;126.25;42.92;;;9.80;99.90;;;;;;6319993;22;20024;-96
2023/05/14 03:35:58;;;;;;;134.68;43.90;;;9.80;99.90;;;;;;6321555;22;20000;-96
2023/05/14 03:38:29;;;;;;;116.35;42.90;;;9.80;99.90;;;;;;6292881;22;20015;-95
2023/05/14 03:40:55;;;;;;;;;;;9.80;99.90;;;;;;6292624;22;20019;-95
2023/05/14 03:43:21;;;;;;;149.05;46.28;;;9.80;99.90;;;;;;6346813;22;19918;-94
2023/05/14 03:45:51;;;;;;;140.75;46.03;;;9.80;99.90;;;;;;6324710;22;20058;-94
2023/05/14 03:48:17;;;;;;;134.93;47.08;;;9.70;99.90;;;;;;6320410;22;20007;-95
2023/05/14 03:50:43;;;;;;;145.63;48.53;;;9.80;99.90;;;;;;6292707;22;20019;-94
2023/05/14 03:53:13;;;;;;;148.55;48.40;;;9.80;99.90;;;;;;6321374;22;20003;-95
2023/05/14 03:55:39;;;;;;;144.83;48.27;;;9.80;99.90;;;;;;6324733;22;19999;-96
2023/05/14 03:58:09;;;;;;;139.15;46.75;;;9.80;99.90;;;;;;6320237;22;20056;-96
2023/05/14 04:00:38;;;;;;;137.35;45.78;;;9.70;99.90;;;;;;6318230;22;20008;-95
2023/05/14 04:03:05;;;;;;;152.63;46.20;;;9.80;99.90;;;;;;6322705;22;20000;-96
2023/05/14 04:05:30;;;;;;;119.15;40.45;;;9.80;99.90;;;;;;6323796;22;20011;-96
2023/05/14 04:07:57;;;;;;;109.88;39.20;;;9.80;99.90;;;;;;6323974;22;20019;-95
2023/05/14 04:10:23;;;;;;;109.68;39.50;;;9.80;99.90;;;;;;6320648;22;20003;-96
2023/05/14 04:12:50;;;;;;;100.75;36.58;;;9.70;99.90;;;;;;6319501;22;20015;-95
2023/05/14 04:15:16;;;;;;;107.40;40.58;;;9.70;99.90;;;;;;6319244;22;20011;-96
2023/05/14 04:17:43;;;;;;;112.53;38.88;;;9.70;99.90;;;;;;6322483;22;20033;-96
2023/05/14 04:20:09;;;;;;;112.28;41.17;;;9.70;99.90;;;;;;6319105;22;20078;-96
2023/05/14 04:22:35;;;;;;;107.15;38.95;;;9.70;99.90;;;;;;6318511;22;20011;-96
2023/05/14 04:25:01;;;;;;;105.15;39.78;;;9.70;99.90;;;;;;6319415;22;19999;-96
2023/05/14 04:27:27;;;;;;;111.68;39.58;;;9.70;99.90;;;;;;6315689;22;20086;-96
2023/05/14 04:29:55;;;;;;;105.78;39.17;;;9.70;99.90;;;;;;6312297;22;20033;-96
2023/05/14 04:32:21;;;;;;;125.80;40.65;;;9.70;99.90;;;;;;6312270;22;20007;-96
2023/05/14 04:34:47;;;;;;;119.45;44.58;;;9.70;99.90;;;;;;6323313;22;20007;-95
2023/05/14 04:37:13;;;;;;;110.53;42.78;;;9.70;99.90;;;;;;6323119;22;20007;-95
2023/05/14 04:39:38;;;;;;;114.25;40.17;;;9.70;99.90;;;;;;6334274;22;19992;-96
2023/05/14 04:42:05;;;;;;;115.32;41.25;;;9.70;99.90;;;;;;6335670;22;19999;-95
2023/05/14 04:44:37;;;;;;;111.00;39.53;;;9.70;99.90;;;;;;6332685;22;20007;-94
2023/05/14 04:47:03;;;;;;;94.47;36.13;;;9.70;99.90;;;;;;6320576;22;20029;-96
2023/05/14 04:49:30;;;;;;;96.75;35.45;;;9.70;99.90;;;;;;6320291;22;20043;-95
2023/05/14 04:51:55;;;;;;;64.88;29.23;;;9.70;99.90;;;;;;6326111;22;20050;-94
2023/05/14 04:54:21;;;;;;;52.38;25.08;;;9.70;99.90;;;;;;6316929;22;20019;-94
2023/05/14 04:56:47;;;;;;;54.70;26.42;;;9.60;99.90;;;;;;6315338;22;20380;-95
2023/05/14 04:59:13;;;;;;;59.42;25.65;;;9.50;99.90;;;;;;6315193;22;20011;-95
2023/05/14 05:01:39;;;;;;;79.28;30.85;;;9.50;99.90;;;;;;6313254;22;20011;-95
2023/05/14 05:04:04;;;;;;;57.55;27.15;;;9.50;99.90;;;;;;6324254;22;20005;-95
2023/05/14 05:06:30;;;;;;;49.40;24.48;;;9.50;99.90;;;;;;6322925;22;20015;-94
2023/05/14 05:08:57;;;;;;;44.08;22.83;;;9.40;99.90;;;;;;6312106;22;20015;-95
2023/05/14 05:11:23;;;;;;;47.33;22.23;;;9.40;99.90;;;;;;6311763;22;19999;-95
2023/05/14 05:13:49;;;;;;;46.78;24.63;;;9.40;99.90;;;;;;6314299;22;20002;-96
2023/05/14 05:16:15;;;;;;;45.75;22.27;;;9.40;99.90;;;;;;6314832;22;20007;-96
2023/05/14 05:18:41;;;;;;;45.63;21.35;;;9.30;99.90;;;;;;6315461;22;20050;-96
2023/05/14 05:21:06;;;;;;;49.17;22.90;;;9.30;99.90;;;;;;6312076;22;20015;-94
2023/05/14 05:23:32;;;;;;;38.17;19.65;;;9.30;99.90;;;;;;6311590;22;20038;-94
2023/05/14 05:25:58;;;;;;;41.85;20.90;;;9.20;99.90;;;;;;6316380;22;20004;-96
2023/05/14 05:28:24;;;;;;;40.78;19.30;;;9.20;99.90;;;;;;6314655;22;20027;-94
2023/05/14 05:30:49;;;;;;;40.55;21.30;;;9.20;99.90;;;;;;6313991;22;20003;-95
2023/05/14 05:33:15;;;;;;;42.65;21.40;;;9.20;99.90;;;;;;6313388;22;20003;-95
2023/05/14 05:35:43;;;;;;;72.25;27.42;;;9.10;99.90;;;;;;6314521;22;20041;-95
2023/05/14 05:38:09;;;;;;;138.98;27.98;;;9.10;99.90;;;;;;6314029;22;20003;-95
2023/05/14 05:40:34;;;;;;;97.20;28.02;;;9.20;99.90;;;;;;6314714;22;20029;-95
2023/05/14 05:43:00;;;;;;;74.40;28.55;;;9.20;99.90;;;;;;6312346;22;20000;-95
2023/05/14 05:45:26;;;;;;;89.45;30.38;;;9.10;99.90;;;;;;6312892;22;20018;-95
2023/05/14 05:47:53;;;;;;;87.93;30.05;;;9.10;99.90;;;;;;6313518;22;20102;-95
2023/05/14 05:50:19;;;;;;;75.55;26.42;;;9.10;99.90;;;;;;6316154;22;20003;-95
2023/05/14 05:52:45;;;;;;;68.03;26.63;;;9.20;99.90;;;;;;6315793;22;20003;-95
2023/05/14 05:55:11;;;;;;;92.70;28.02;;;9.20;99.90;;;;;;6312417;22;20513;-95
2023/05/14 05:57:37;;;;;;;61.88;25.95;;;9.20;99.90;;;;;;6311768;22;20045;-95
2023/05/14 06:00:12;;;;;;;58.70;22.17;;;9.20;99.90;;;;;;6310132;22;20010;-95
2023/05/14 06:02:38;;;;;;;49.40;22.23;;;9.20;99.90;;;;;;6309331;22;20038;-95
2023/05/14 06:05:05;;;;;;;61.55;24.73;;;9.20;99.90;;;;;;6311683;22;20091;-95
2023/05/14 06:07:31;;;;;;;74.78;24.73;;;9.10;99.90;;;;;;6314654;22;20008;-95
2023/05/14 06:09:59;;;;;;;62.55;24.70;;;9.20;99.90;;;;;;6283835;22;20014;-95
2023/05/14 06:12:25;;;;;;;61.38;24.92;;;9.20;99.90;;;;;;6284307;22;20010;-95
2023/05/14 06:14:54;;;;;;;83.55;25.40;;;9.30;99.90;;;;;;6289070;22;20003;-94
2023/05/14 06:17:20;;;;;;;64.03;24.08;;;9.30;99.90;;;;;;6300966;22;20422;-95
2023/05/14 06:19:45;;;;;;;49.65;22.88;;;9.30;99.90;;;;;;6292792;22;19999;-95
2023/05/14 06:22:11;;;;;;;58.25;23.77;;;9.30;99.90;;;;;;6292919;22;20007;-95
2023/05/14 06:24:37;;;;;;;56.08;23.38;;;9.30;99.90;;;;;;6288086;22;20007;-96
2023/05/14 06:27:03;;;;;;;49.58;22.92;;;9.40;99.90;;;;;;6285097;22;20015;-94
2023/05/14 06:29:28;;;;;;;49.70;22.63;;;9.40;99.90;;;;;;6283551;22;20299;-96
2023/05/14 06:32:01;;;;;;;68.63;23.83;;;9.50;99.90;;;;;;6283211;22;20005;-94
2023/05/14 06:34:27;;;;;;;65.30;25.15;;;9.50;99.90;;;;;;6283165;22;20378;-94
2023/05/14 06:36:53;;;;;;;97.53;22.92;;;9.60;99.90;;;;;;6282759;22;20007;-94
2023/05/14 06:39:18;;;;;;;69.80;23.83;;;9.60;99.90;;;;;;6283803;22;20033;-95
2023/05/14 06:41:44;;;;;;;90.45;23.90;;;9.60;99.90;;;;;;6287158;22;20021;-95
2023/05/14 06:44:10;;;;;;;56.70;23.67;;;9.60;99.90;;;;;;6287116;22;20085;-95
2023/05/14 06:46:39;;;;;;;59.40;23.90;;;9.60;99.90;;;;;;6284937;22;20114;-95
2023/05/14 06:49:05;;;;;;;53.92;23.08;;;9.70;99.90;;;;;;6285223;22;20054;-95
2023/05/14 06:51:31;;;;;;;56.03;24.65;;;9.70;99.90;;;;;;6284317;22;20422;-95
2023/05/14 06:53:57;;;;;;;50.67;23.65;;;9.70;99.90;;;;;;6285049;22;20387;-94
2023/05/14 06:56:23;;;;;;;60.90;24.85;;;9.80;99.90;;;;;;6285212;22;20003;-96
2023/05/14 06:58:52;;;;;;;58.40;24.85;;;9.80;99.90;;;;;;6286255;22;20094;-95
2023/05/14 07:01:18;;;;;;;58.80;24.55;;;9.90;99.90;;;;;;6287718;22;20103;-95
2023/05/14 07:03:43;;;;;;;57.25;25.20;;;9.80;99.90;;;;;;6288824;22;19999;-93
2023/05/14 07:06:09;;;;;;;66.50;27.48;;;9.90;99.90;;;;;;6296988;22;19999;-93
2023/05/14 07:08:35;;;;;;;63.42;25.55;;;10.00;99.90;;;;;;6306083;22;20098;-93
2023/05/14 07:11:01;;;;;;;86.25;26.98;;;10.00;99.90;;;;;;6324934;22;20030;-94
2023/05/14 07:13:27;;;;;;;58.50;26.48;;;10.00;99.90;;;;;;6312907;22;20347;-94
2023/05/14 07:15:54;;;;;;;66.88;26.55;;;10.10;99.90;;;;;;6310627;22;20014;-96
2023/05/14 07:18:21;;;;;;;54.83;25.40;;;10.20;99.90;;;;;;6315219;22;20000;-93
2023/05/14 07:20:47;;;;;;;69.47;26.40;;;10.20;99.90;;;;;;6312588;22;20022;-94
2023/05/14 07:23:12;;;;;;;54.50;23.77;;;10.30;99.90;;;;;;6313386;22;19995;-95
2023/05/14 07:25:38;;;;;;;54.97;26.30;;;10.40;99.90;;;;;;6314103;22;20010;-95
2023/05/14 07:28:04;;;;;;;59.20;26.20;;;10.40;99.90;;;;;;6320100;22;20014;-95
2023/05/14 07:30:32;;;;;;;56.80;25.65;;;10.50;99.90;;;;;;6320070;22;20025;-95
2023/05/14 07:32:58;;;;;;;56.58;26.13;;;10.60;99.90;;;;;;6316818;22;20014;-94
2023/05/14 07:35:24;;;;;;;51.88;24.83;;;10.80;99.90;;;;;;6326958;22;20063;-94
2023/05/14 07:37:50;;;;;;;59.10;26.08;;;10.90;99.90;;;;;;6327915;22;19999;-95
2023/05/14 07:40:16;;;;;;;57.40;26.27;;;11.00;99.90;;;;;;6327804;22;20074;-94
2023/05/14 07:42:42;;;;;;;58.63;27.23;;;11.00;99.90;;;;;;6325229;22;20018;-95
2023/05/14 07:45:08;;;;;;;54.78;25.65;;;11.10;99.90;;;;;;6321128;22;20393;-94
2023/05/14 07:47:34;;;;;;;47.83;24.50;;;11.30;99.90;;;;;;6316670;22;20039;-95
2023/05/14 07:50:00;;;;;;;49.00;23.38;;;11.30;99.90;;;;;;6313566;22;20002;-95
2023/05/14 07:52:25;;;;;;;47.65;24.20;;;11.50;99.90;;;;;;6313715;22;20029;-95
2023/05/14 07:54:55;;;;;;;47.75;23.05;;;11.60;99.90;;;;;;6314769;22;20025;-95
2023/05/14 07:57:21;;;;;;;47.38;23.33;;;11.60;99.90;;;;;;6313140;22;20012;-96
2023/05/14 07:59:47;;;;;;;47.92;22.80;;;11.70;99.90;;;;;;6311629;22;20034;-95
2023/05/14 08:02:14;;;;;;;46.80;23.27;;;11.80;99.90;;;;;;6310993;22;20007;-95
2023/05/14 08:04:40;;;;;;;44.40;23.73;;;11.90;99.90;;;;;;6312076;22;20007;-96
2023/05/14 08:07:07;;;;;;;48.15;23.52;;;12.00;99.90;;;;;;6314186;22;20321;-96
2023/05/14 08:09:39;;;;;;;47.60;23.52;;;12.10;99.90;;;;;;6311644;22;20022;-95
2023/05/14 08:12:07;;;;;;;46.70;22.75;;;12.10;99.90;;;;;;6311260;22;19999;-94
2023/05/14 08:14:35;;;;;;;46.30;22.50;;;12.20;99.90;;;;;;6311026;22;20069;-95
2023/05/14 08:17:01;;;;;;;44.60;23.80;;;12.30;99.90;;;;;;6314221;22;20176;-95
2023/05/14 08:19:27;;;;;;;56.85;25.20;;;12.40;99.90;;;;;;6312174;22;20011;-95
2023/05/14 08:21:53;;;;;;;40.85;21.35;;;12.50;99.90;;;;;;6311556;22;20350;-96
2023/05/14 08:24:22;;;;;;;37.78;21.15;;;12.70;99.90;;;;;;6311092;22;20003;-96
2023/05/14 08:26:49;;;;;;;49.00;24.45;;;12.80;99.90;;;;;;6310779;22;20007;-96
2023/05/14 08:29:15;;;;;;;42.03;21.70;;;13.00;99.90;;;;;;6310948;22;20003;-95
2023/05/14 08:31:41;;;;;;;40.38;21.65;;;13.10;99.90;;;;;;6310725;22;20013;-95
2023/05/14 08:34:06;;;;;;;42.65;22.00;;;13.30;99.90;;;;;;6310759;22;20010;-95
2023/05/14 08:36:32;;;;;;;41.63;21.98;;;13.50;99.90;;;;;;6308858;22;20009;-95
2023/05/14 08:38:58;;;;;;;39.20;21.70;;;13.70;99.90;;;;;;6309459;22;20002;-94
2023/05/14 08:41:24;;;;;;;40.58;21.05;;;13.90;99.90;;;;;;6308920;22;20015;-96
2023/05/14 08:43:56;;;;;;;41.10;21.90;;;14.10;99.90;;;;;;6308920;22;20074;-95
2023/05/14 08:46:23;;;;;;;40.22;22.08;;;14.30;99.90;;;;;;6308811;22;20000;-94
2023/05/14 08:48:59;;;;;;;41.10;21.40;;;14.50;99.90;;;;;;6310575;22;20038;-94
2023/05/14 08:51:26;;;;;;;39.20;21.70;;;14.80;99.90;;;;;;6310366;22;20414;-95
2023/05/14 08:53:52;;;;;;;36.15;19.90;;;15.00;99.90;;;;;;6309533;22;20007;-96
2023/05/14 08:56:18;;;;;;;31.65;18.90;;;15.30;99.90;;;;;;6311373;22;20082;-95
2023/05/14 08:58:44;;;;;;;38.75;20.98;;;15.50;99.90;;;;;;6314707;22;20010;-95
2023/05/14 09:13:52;;;;;;;28.70;16.27;;;16.90;99.90;;;;;;6334046;22;20080;-95
2023/05/14 09:16:20;;;;;;;21.77;13.75;;;17.10;99.90;;;;;;6287676;22;20007;-95
2023/05/14 09:18:46;;;;;;;22.05;13.75;;;17.30;99.90;;;;;;6286284;22;20003;-95
2023/05/14 09:21:16;;;;;;;26.35;14.82;;;17.50;99.90;;;;;;6287325;22;20034;-95
2023/05/14 09:23:43;;;;;;;28.75;14.82;;;17.70;99.90;;;;;;6283792;22;20039;-94
2023/05/14 09:26:09;;;;;;;21.83;14.05;;;17.90;99.90;;;;;;6284319;22;20086;-94
2023/05/14 09:28:38;;;;;;;21.48;13.15;;;18.00;99.90;;;;;;6285359;22;19999;-94
2023/05/14 09:31:04;;;;;;;21.75;14.48;;;18.10;99.90;;;;;;6284240;22;20007;-94
2023/05/14 09:33:29;;;;;;;20.88;12.93;;;18.30;99.90;;;;;;6289506;22;20014;-96
2023/05/14 09:35:59;;;;;;;19.95;13.38;;;18.50;99.90;;;;;;6288504;22;20068;-96
2023/05/14 09:38:34;;;;;;;22.83;13.48;;;18.70;99.90;;;;;;6293505;22;19999;-96
2023/05/14 09:41:00;;;;;;;18.20;12.15;;;18.90;99.90;;;;;;6264882;22;20098;-96
2023/05/14 09:43:26;;;;;;;17.00;12.25;;;19.10;99.90;;;;;;6287885;22;20007;-95
2023/05/14 09:45:53;;;;;;;18.15;12.57;;;19.30;99.90;;;;;;6285161;22;20003;-95
2023/05/14 09:48:19;;;;;;;16.05;11.85;;;19.40;99.90;;;;;;6286203;22;20582;-95
2023/05/14 09:50:45;;;;;;;16.25;11.70;;;19.50;99.90;;;;;;6288354;22;20014;-95
2023/05/14 09:53:14;;;;;;;17.70;11.48;;;19.60;99.90;;;;;;6289616;22;19999;-96
2023/05/14 09:55:40;;;;;;;23.52;12.48;;;19.70;99.10;;;;;;6291311;22;20094;-96
2023/05/14 09:58:06;;;;;;;19.30;11.63;;;19.80;98.70;;;;;;6289538;22;20003;-96
2023/05/14 10:00:35;;;;;;;23.52;12.98;;;19.90;97.80;;;;;;6290029;22;19999;-96
2023/05/14 10:03:06;;;;;;;18.52;12.23;;;20.00;97.10;;;;;;6284288;22;20098;-96
2023/05/14 10:05:36;;;;;;;21.60;11.75;;;20.10;96.30;;;;;;6283937;22;20003;-96
2023/05/14 10:08:20;;;;;;;16.33;11.93;;;20.10;95.60;;;;;;6282677;22;20004;-96
2023/05/14 10:10:49;;;;;;;20.60;11.25;;;20.10;95.30;;;;;;6289300;22;20011;-96
2023/05/14 10:13:21;;;;;;;19.52;11.57;;;20.10;95.00;;;;;;6307943;22;20007;-96
2023/05/14 10:15:53;;;;;;;18.75;11.85;;;20.20;94.60;;;;;;6313340;22;20003;-95
2023/05/14 10:18:21;;;;;;;17.95;11.63;;;20.10;94.30;;;;;;6315298;22;20078;-96
2023/05/14 10:20:56;;;;;;;18.10;10.80;;;20.10;94.10;;;;;;6313465;22;20031;-96
2023/05/14 10:23:22;;;;;;;12.23;8.60;;;20.10;93.60;;;;;;6315049;22;20082;-95
2023/05/14 10:25:48;;;;;;;11.63;8.57;;;20.10;93.40;;;;;;6326081;22;19999;-96
2023/05/14 10:28:15;;;;;;;11.07;8.65;;;20.10;92.80;;;;;;6313702;22;20066;-96
2023/05/14 10:30:48;;;;;;;12.70;8.23;;;20.00;92.00;;;;;;6311625;22;20007;-96
2023/05/14 10:33:15;;;;;;;12.82;8.95;;;20.00;91.70;;;;;;6312686;22;19995;-96
2023/05/14 10:35:56;;;;;;;12.90;9.48;;;20.00;91.50;;;;;;6311369;22;20036;-96
2023/05/14 10:38:31;;;;;;;12.70;8.48;;;20.00;91.10;;;;;;6311614;22;20010;-95
2023/05/14 10:41:00;;;;;;;14.88;8.13;;;20.00;91.10;;;;;;6315168;22;20505;-95
2023/05/14 10:43:30;;;;;;;9.32;7.47;;;20.00;90.90;;;;;;6315203;22;20003;-95
2023/05/14 10:45:57;;;;;;;11.60;7.68;;;20.00;91.00;;;;;;6311325;22;20030;-96
2023/05/14 10:48:25;;;;;;;12.57;9.30;;;20.10;90.50;;;;;;6310129;22;20008;-95
2023/05/14 10:50:52;;;;;;;14.63;9.15;;;20.00;90.00;;;;;;6310148;22;20034;-95
2023/05/14 10:53:18;;;;;;;10.52;8.35;;;19.90;89.50;;;;;;6313163;22;20027;-96
2023/05/14 10:55:44;;;;;;;10.43;8.20;;;19.90;89.30;;;;;;6314495;22;20004;-96
2023/05/14 10:58:11;;;;;;;10.00;7.57;;;20.00;88.60;;;;;;6314720;22;19999;-95
2023/05/14 11:00:38;;;;;;;9.32;6.50;;;20.10;88.00;;;;;;6322539;22;20035;-96
2023/05/14 11:03:05;;;;;;;10.57;6.53;;;20.30;86.40;;;;;;6323024;22;20027;-95
2023/05/14 11:05:34;;;;;;;9.27;6.68;;;20.40;84.80;;;;;;6315672;22;20082;-95
2023/05/14 11:08:05;;;;;;;8.38;6.38;;;20.60;83.50;;;;;;6318813;22;20023;-96
2023/05/14 11:10:31;;;;;;;;;;;20.90;82.50;;;;;;6320158;22;20359;-96
2023/05/14 11:12:57;;;;;;;8.45;5.82;;;21.10;81.40;;;;;;6282409;22;19966;-96
2023/05/14 11:15:25;;;;;;;7.70;5.60;;;21.30;80.10;;;;;;6263733;22;20012;-96
2023/05/14 11:17:52;;;;;;;5.55;3.80;;;21.50;78.80;;;;;;6263879;22;20010;-96
2023/05/14 11:20:19;;;;;;;6.38;3.53;;;21.50;76.70;;;;;;6235288;22;20035;-96
2023/05/14 11:22:46;;;;;;;7.32;4.72;;;21.70;74.90;;;;;;6233977;22;20023;-95
2023/05/14 11:25:14;;;;;;;5.03;3.60;;;21.80;73.80;;;;;;6289779;22;20007;-95
2023/05/14 11:27:44;;;;;;;4.28;3.40;;;21.90;73.00;;;;;;6263942;22;20091;-96
2023/05/14 11:30:20;;;;;;;7.45;3.70;;;22.00;71.50;;;;;;6258593;22;20003;-94
2023/05/14 11:32:48;;;;;;;5.20;3.60;;;22.20;71.00;;;;;;6268184;22;20026;-96
2023/05/14 11:35:16;;;;;;;6.40;3.58;;;22.40;70.30;;;;;;6264715;22;20004;-96
2023/05/14 11:37:43;;;;;;;4.68;3.10;;;22.60;68.70;;;;;;6265225;22;20000;-95
2023/05/14 11:40:15;;;;;;;4.97;3.92;;;22.80;68.10;;;;;;6269064;22;20000;-95
2023/05/14 11:42:44;;;;;;;8.90;5.15;;;22.90;67.90;;;;;;6273062;22;20031;-95
2023/05/14 11:45:11;;;;;;;8.93;5.28;;;22.90;67.30;;;;;;6243089;22;20004;-93
2023/05/14 11:47:37;;;;;;;6.20;4.38;;;22.90;67.00;;;;;;6276907;22;20063;-95
2023/05/14 11:50:03;;;;;;;6.38;4.57;;;22.80;67.10;;;;;;6262185;22;20016;-95
2023/05/14 11:52:30;;;;;;;6.90;4.47;;;22.80;67.50;;;;;;6259894;22;20411;-96
2023/05/14 11:54:58;;;;;;;5.60;4.15;;;22.70;67.40;;;;;;6268228;22;20082;-94
2023/05/14 11:57:32;;;;;;;6.93;3.28;;;22.70;66.50;;;;;;6269733;22;20053;-96
2023/05/14 12:00:23;;;;;;;5.22;4.57;;;22.80;66.30;;;;;;6282467;22;20007;-96
2023/05/14 12:03:13;;;;;;;5.30;3.03;;;22.80;65.80;;;;;;6275909;22;20003;-96
2023/05/14 12:05:39;;;;;;;6.20;4.20;;;22.90;64.70;;;;;;6247509;22;20008;-95
2023/05/14 12:08:31;;;;;;;5.43;3.20;;;22.90;64.60;;;;;;6265735;22;20004;-96
2023/05/14 12:10:58;;;;;;;3.65;2.90;;;22.90;63.80;;;;;;6259723;22;20000;-96
2023/05/14 12:13:26;;;;;;;3.63;2.80;;;22.90;63.80;;;;;;6302176;22;20450;-96
2023/05/14 12:16:00;;;;;;;6.35;2.97;;;22.80;63.30;;;;;;6320604;22;19996;-96
2023/05/14 12:18:32;;;;;;;3.60;2.80;;;22.60;63.00;;;;;;6298975;22;20011;-95
2023/05/14 12:21:07;;;;;;;4.30;2.90;;;22.60;63.30;;;;;;6299189;22;20015;-95
2023/05/14 12:23:33;;;;;;;4.55;3.22;;;22.60;63.30;;;;;;6319427;22;20011;-96
2023/05/14 12:26:05;;;;;;;3.22;2.20;;;22.60;63.20;;;;;;6322367;22;20035;-96
2023/05/14 12:28:32;;;;;;;3.42;2.70;;;22.60;63.30;;;;;;6324278;22;20007;-96
2023/05/14 12:30:59;;;;;;;2.55;2.17;;;22.60;62.60;;;;;;6322742;22;20019;-96
2023/05/14 12:33:31;;;;;;;2.80;2.50;;;22.60;62.80;;;;;;6330250;22;20008;-96
2023/05/14 12:36:00;;;;;;;;;;;22.40;61.90;;;;;;6332332;22;20010;-96
2023/05/14 12:38:30;;;;;;;1.88;1.67;;;22.40;61.70;;;;;;6332116;22;20364;-96
2023/05/14 12:41:00;;;;;;;3.33;1.42;;;22.50;61.80;;;;;;6330145;22;20012;-95
2023/05/14 12:43:34;;;;;;;3.45;1.50;;;22.60;60.90;;;;;;6333009;22;19994;-96
2023/05/14 12:46:05;;;;;;;2.03;1.52;;;22.70;59.70;;;;;;6330766;22;20010;-96
2023/05/14 12:48:32;;;;;;;3.03;1.90;;;22.90;59.50;;;;;;6331370;22;20007;-95